createdAt,value
2023-01-19T00:01:39.468Z,103006.79
2023-01-19T00:04:07.695Z,103006.05
2023-01-19T00:06:37.802Z,102999.20
2023-01-19T00:09:06.033Z,103002.88
2023-01-19T00:11:36.058Z,103000.77
2023-01-19T00:14:04.649Z,103000.60
2023-01-19T00:16:32.600Z,103005.42
2023-01-19T00:19:00.657Z,102995.77
2023-01-19T00:21:28.432Z,102987.80
2023-01-19T00:23:57.582Z,102991.61
2023-01-19T00:26:25.744Z,102987.40
2023-01-19T00:28:52.749Z,102986.31
2023-01-19T00:31:21.288Z,102975.06
2023-01-19T00:33:49.653Z,102969.26
2023-01-19T00:36:16.738Z,102967.02
2023-01-19T00:38:51.223Z,102965.86
2023-01-19T00:41:19.003Z,102968.36
2023-01-19T00:43:47.039Z,102970.48
2023-01-19T00:46:14.373Z,102969.27
2023-01-19T00:48:41.456Z,102979.63
2023-01-19T00:51:08.343Z,102983.50
2023-01-19T00:53:38.863Z,102983.67
2023-01-19T00:56:06.515Z,102985.10
2023-01-19T00:58:35.609Z,102988.32
2023-01-19T01:01:04.492Z,102994.15
2023-01-19T01:03:32.203Z,102991.40
2023-01-19T01:05:59.177Z,102994.15
2023-01-19T01:08:27.033Z,102990.77
2023-01-19T01:10:54.205Z,102979.64
2023-01-19T01:13:22.839Z,102966.58
2023-01-19T01:15:53.143Z,102949.65
2023-01-19T01:18:20.588Z,102937.29
2023-01-19T01:20:48.136Z,102932.67
2023-01-19T01:23:15.281Z,102932.67
2023-01-19T01:25:43.326Z,102927.63
2023-01-19T01:28:10.554Z,102924.68
2023-01-19T01:30:40.719Z,102923.97
2023-01-19T01:33:09.097Z,102927.30
2023-01-19T01:35:36.485Z,102928.85
2023-01-19T01:38:04.250Z,102932.32
2023-01-19T01:40:31.366Z,102930.73
2023-01-19T01:42:58.628Z,102928.65
2023-01-19T01:45:34.015Z,102930.24
2023-01-19T01:48:26.920Z,102934.77
2023-01-19T01:51:15.907Z,102940.35
2023-01-19T01:53:43.146Z,102944.05
2023-01-19T01:56:12.789Z,102943.23
2023-01-19T01:58:40.026Z,102939.41
2023-01-19T02:01:25.759Z,102933.13
2023-01-19T02:03:57.525Z,102943.47
2023-01-19T02:06:25.589Z,102945.62
2023-01-19T02:09:18.352Z,102951.67
2023-01-19T02:12:04.812Z,102966.09
2023-01-19T02:14:32.108Z,102977.48
2023-01-19T02:16:59.141Z,102974.80
2023-01-19T02:19:33.673Z,102975.31
2023-01-19T02:24:50.367Z,103070.91
2023-01-19T02:27:17.617Z,103132.61
2023-01-19T02:29:46.262Z,103123.02
2023-01-19T02:32:13.517Z,103114.66
2023-01-19T02:34:40.676Z,103110.64
2023-01-19T02:37:11.814Z,103104.05
2023-01-19T02:39:45.562Z,103103.58
2023-01-19T02:42:14.722Z,103094.17
2023-01-19T02:44:42.998Z,103088.42
2023-01-19T02:47:10.067Z,103078.27
2023-01-19T02:49:38.173Z,103077.41
2023-01-19T02:52:07.989Z,103073.54
2023-01-19T02:54:56.144Z,103070.58
2023-01-19T02:57:49.143Z,103068.84
2023-01-19T03:00:27.889Z,103072.88
2023-01-19T03:03:43.927Z,103067.23
2023-01-19T03:06:24.502Z,103075.41
2023-01-19T03:09:23.976Z,103068.80
2023-01-19T03:11:56.341Z,103064.99
2023-01-19T03:14:25.299Z,103062.77
2023-01-19T03:16:57.446Z,103064.63
2023-01-19T03:19:33.062Z,103065.95
2023-01-19T03:22:03.272Z,103068.56
2023-01-19T03:24:31.803Z,103069.59
2023-01-19T03:27:03.508Z,103063.73
2023-01-19T03:29:35.155Z,103063.23
2023-01-19T03:32:04.421Z,103068.87
2023-01-19T03:34:32.236Z,103070.35
2023-01-19T03:37:00.813Z,103076.16
2023-01-19T03:39:29.186Z,103073.55
2023-01-19T03:42:03.380Z,103072.11
2023-01-19T03:44:31.654Z,103078.36
2023-01-19T03:46:59.523Z,103079.92
2023-01-19T03:49:26.835Z,103088.34
2023-01-19T03:51:59.083Z,103093.66
2023-01-19T03:54:26.787Z,103098.95
2023-01-19T03:56:54.420Z,103100.59
2023-01-19T03:59:22.210Z,103102.74
2023-01-19T04:01:51.068Z,103107.80
2023-01-19T04:04:18.817Z,103105.38
2023-01-19T04:06:46.028Z,103105.92
2023-01-19T04:09:13.299Z,103109.98
2023-01-19T04:11:40.557Z,103110.02
2023-01-19T04:14:08.648Z,103114.30
2023-01-19T04:16:35.814Z,103117.14
2023-01-19T04:19:05.847Z,103117.64
2023-01-19T04:21:33.701Z,103119.75
2023-01-19T04:24:02.171Z,103123.80
2023-01-19T04:26:29.256Z,103125.73
2023-01-19T04:28:56.321Z,103128.87
2023-01-19T04:31:24.174Z,103129.02
2023-01-19T04:33:51.957Z,103126.34
2023-01-19T04:36:21.027Z,103115.09
2023-01-19T04:38:48.917Z,103113.11
2023-01-19T04:41:18.164Z,103109.56
2023-01-19T04:43:45.277Z,103104.30
2023-01-19T04:46:13.062Z,103100.63
2023-01-19T04:48:42.069Z,103099.35
2023-01-19T04:51:10.986Z,103102.49
2023-01-19T04:53:39.642Z,103101.98
2023-01-19T04:56:07.237Z,103103.37
2023-01-19T04:58:34.606Z,103103.73
2023-01-19T05:01:01.928Z,103106.91
2023-01-19T05:03:30.473Z,103103.41
2023-01-19T05:05:58.113Z,103106.71
2023-01-19T05:08:25.746Z,103106.02
2023-01-19T05:10:54.189Z,103112.64
2023-01-19T05:13:21.639Z,103115.98
2023-01-19T05:15:50.877Z,103117.00
2023-01-19T05:18:18.541Z,103114.52
2023-01-19T05:21:05.304Z,103247.39
2023-01-19T05:23:32.998Z,103290.88
2023-01-19T05:26:03.768Z,103249.77
2023-01-19T05:28:32.249Z,103232.11
2023-01-19T05:30:59.736Z,103219.71
2023-01-19T05:33:27.927Z,103208.70
2023-01-19T05:35:55.527Z,103203.73
2023-01-19T05:38:34.368Z,103200.20
2023-01-19T05:41:03.491Z,103199.98
2023-01-19T05:43:31.129Z,103184.54
2023-01-19T05:46:04.323Z,103174.54
2023-01-19T05:48:33.191Z,103178.66
2023-01-19T05:51:01.372Z,103170.74
2023-01-19T05:53:29.248Z,103166.84
2023-01-19T05:56:23.421Z,103165.09
2023-01-19T05:58:54.511Z,103161.09
2023-01-19T06:01:22.651Z,103160.58
2023-01-19T06:03:54.093Z,103163.06
2023-01-19T06:06:22.650Z,103163.83
2023-01-19T06:08:58.601Z,103162.65
2023-01-19T06:11:26.689Z,103170.77
2023-01-19T06:13:55.552Z,103178.01
2023-01-19T06:24:06.439Z,103347.98
2023-01-19T06:26:35.061Z,103390.32
2023-01-19T06:29:02.845Z,103355.59
2023-01-19T06:31:30.769Z,103337.30
2023-01-19T06:33:58.700Z,103321.26
2023-01-19T06:42:49.176Z,103394.83
2023-01-19T06:45:16.726Z,103434.79
2023-01-19T06:47:48.094Z,103396.56
2023-01-19T06:50:15.572Z,103376.94
2023-01-19T06:52:44.732Z,103364.63
2023-01-19T06:55:13.199Z,103360.80
2023-01-19T06:57:41.053Z,103351.84
2023-01-19T07:00:10.060Z,103351.61
2023-01-19T07:02:43.739Z,103352.39
2023-01-19T07:05:14.987Z,103349.48
2023-01-19T07:07:43.465Z,103344.27
2023-01-19T07:10:12.106Z,103341.16
2023-01-19T07:12:39.537Z,103344.55
2023-01-19T07:15:09.769Z,103348.16
2023-01-19T07:17:37.084Z,103348.94
2023-01-19T07:20:04.896Z,103342.36
2023-01-19T07:22:32.292Z,103340.87
2023-01-19T07:24:59.667Z,103346.64
2023-01-19T07:27:28.400Z,103350.27
2023-01-19T07:29:55.537Z,103354.42
2023-01-19T07:32:23.344Z,103365.67
2023-01-19T07:34:50.333Z,103372.19
2023-01-19T07:37:17.539Z,103387.80
2023-01-19T07:39:45.915Z,103400.49
2023-01-19T07:42:13.098Z,103407.16
2023-01-19T07:44:40.829Z,103408.51
2023-01-19T07:47:11.343Z,103409.34
2023-01-19T07:49:39.693Z,103416.02
2023-01-19T07:52:06.761Z,103421.60
2023-01-19T07:54:34.099Z,103430.48
2023-01-19T07:57:01.125Z,103430.36
2023-01-19T07:59:30.492Z,103428.61
2023-01-19T08:01:59.776Z,103425.42
2023-01-19T08:04:27.654Z,103427.38
2023-01-19T08:06:56.681Z,103425.13
2023-01-19T08:09:24.550Z,103424.51
2023-01-19T08:11:51.895Z,103425.10
2023-01-19T08:14:19.700Z,103425.52
2023-01-19T08:16:46.876Z,103421.90
2023-01-19T08:19:13.918Z,103422.14
2023-01-19T08:21:41.332Z,103422.54
2023-01-19T08:24:11.629Z,103421.34
2023-01-19T08:26:39.385Z,103415.25
2023-01-19T08:29:07.038Z,103406.14
2023-01-19T08:31:34.306Z,103398.63
2023-01-19T08:34:02.159Z,103386.22
2023-01-19T08:36:29.642Z,103392.08
2023-01-19T08:38:56.743Z,103393.39
2023-01-19T08:41:23.898Z,103392.97
2023-01-19T08:43:51.430Z,103397.66
2023-01-19T08:46:22.095Z,103402.02
2023-01-19T08:48:50.496Z,103402.88
2023-01-19T08:51:17.679Z,103408.84
2023-01-19T08:53:45.177Z,103410.91
2023-01-19T08:56:13.902Z,103414.91
2023-01-19T08:58:42.303Z,103420.97
2023-01-19T09:01:09.557Z,103418.02
2023-01-19T09:03:37.060Z,103415.41
2023-01-19T09:06:08.193Z,103408.92
2023-01-19T09:08:35.235Z,103398.18
2023-01-19T09:11:02.316Z,103383.40
2023-01-19T09:13:29.329Z,103365.24
2023-01-19T09:15:56.367Z,103349.55
2023-01-19T09:18:23.362Z,103336.15
2023-01-19T09:20:50.658Z,103325.08
2023-01-19T09:23:20.083Z,103311.56
2023-01-19T09:25:47.406Z,103305.79
2023-01-19T09:28:17.972Z,103294.41
2023-01-19T09:30:45.226Z,103287.25
2023-01-19T09:33:14.974Z,103279.52
2023-01-19T09:35:42.548Z,103271.30
2023-01-19T09:38:10.457Z,103255.17
2023-01-19T09:40:44.822Z,103250.46
2023-01-19T09:43:27.217Z,103248.05
2023-01-19T09:45:58.889Z,103243.55
2023-01-19T09:48:40.319Z,103237.45
2023-01-19T09:51:08.659Z,103234.15
2023-01-19T09:53:55.849Z,103228.61
2023-01-19T09:56:23.055Z,103232.20
2023-01-19T09:58:51.191Z,103224.16
2023-01-19T10:01:27.491Z,103222.81
2023-01-19T10:04:07.095Z,103221.98
2023-01-19T10:06:34.276Z,103211.98
2023-01-19T10:09:06.535Z,103195.30
2023-01-19T10:11:51.992Z,103188.50
2023-01-19T10:14:24.703Z,103183.45
2023-01-19T10:17:26.522Z,103175.05
2023-01-19T10:19:54.306Z,103178.67
2023-01-19T10:22:25.176Z,103173.81
2023-01-19T10:24:56.862Z,103180.27
2023-01-19T10:27:26.873Z,103184.05
2023-01-19T10:29:54.011Z,103186.08
2023-01-19T10:32:26.379Z,103188.80
2023-01-19T10:34:54.154Z,103197.70
2023-01-19T10:37:31.295Z,103212.94
2023-01-19T10:39:59.618Z,103229.43
2023-01-19T10:42:29.655Z,103234.25
2023-01-19T10:44:56.738Z,103257.05
2023-01-19T10:47:29.641Z,103268.71
2023-01-19T10:49:56.778Z,103279.34
2023-01-19T10:52:27.024Z,103269.30
2023-01-19T10:54:54.176Z,103264.89
2023-01-19T10:57:43.580Z,103264.02
2023-01-19T11:00:32.217Z,103250.80
2023-01-19T11:03:00.097Z,103245.36
2023-01-19T11:05:29.663Z,103230.54
2023-01-19T11:07:56.894Z,103219.59
2023-01-19T11:10:28.801Z,103205.48
2023-01-19T11:12:57.399Z,103184.30
2023-01-19T11:15:52.735Z,103174.95
2023-01-19T11:18:30.218Z,103161.55
2023-01-19T11:20:59.503Z,103143.70
2023-01-19T11:23:44.469Z,103122.87
2023-01-19T11:26:33.865Z,103097.98
2023-01-19T11:29:02.332Z,103076.81
2023-01-19T11:31:29.458Z,103048.05
2023-01-19T11:33:58.069Z,103024.59
2023-01-19T11:36:27.226Z,103003.06
2023-01-19T11:38:56.156Z,102983.83
2023-01-19T11:41:34.287Z,102964.95
2023-01-19T11:47:36.377Z,102916.62
2023-01-19T11:50:23.767Z,102895.80
2023-01-19T11:53:15.109Z,102870.58
2023-01-19T11:56:08.768Z,102840.23
2023-01-19T11:58:39.945Z,102822.07
2023-01-19T12:01:22.468Z,102801.59
2023-01-19T12:03:57.746Z,102784.84
2023-01-19T12:06:31.617Z,102762.79
2023-01-19T12:09:09.804Z,102744.42
2023-01-19T12:11:45.407Z,102734.88
2023-01-19T12:14:29.303Z,102718.46
2023-01-19T12:16:58.085Z,102709.63
2023-01-19T12:19:27.131Z,102694.09
2023-01-19T12:21:54.402Z,102680.14
2023-01-19T12:24:36.939Z,102665.84
2023-01-19T12:27:13.709Z,102655.42
2023-01-19T12:29:41.491Z,102640.96
2023-01-19T12:32:14.995Z,102616.81
2023-01-19T12:34:49.383Z,102601.84
2023-01-19T12:37:31.641Z,102587.58
2023-01-19T12:40:00.989Z,102570.84
2023-01-19T12:42:28.036Z,102547.75
2023-01-19T12:45:17.778Z,102526.64
2023-01-19T12:47:52.909Z,102504.65
2023-01-19T12:50:23.509Z,102483.35
2023-01-19T12:52:57.543Z,102457.66
2023-01-19T12:55:31.282Z,102443.63
2023-01-19T12:58:01.528Z,102417.42
2023-01-19T13:00:36.917Z,102402.67
2023-01-19T13:03:16.391Z,102389.48
2023-01-19T13:05:43.513Z,102376.67
2023-01-19T13:08:11.497Z,102358.02
2023-01-19T13:11:00.887Z,102336.21
2023-01-19T13:13:37.839Z,102319.54
2023-01-19T13:16:20.521Z,102296.36
2023-01-19T13:18:50.845Z,102278.48
2023-01-19T13:21:32.463Z,102259.55
2023-01-19T13:24:01.307Z,102240.24
2023-01-19T13:26:30.914Z,102221.14
2023-01-19T13:29:05.369Z,102209.06
2023-01-19T13:31:36.436Z,102198.58
2023-01-19T13:34:03.567Z,102176.87
2023-01-19T13:36:38.168Z,102156.91
2023-01-19T13:39:06.889Z,102146.28
2023-01-19T13:41:38.550Z,102132.65
2023-01-19T13:44:07.718Z,102121.64
2023-01-19T13:46:34.932Z,102100.29
2023-01-19T13:49:29.194Z,102094.42
2023-01-19T13:52:22.505Z,102079.22
2023-01-19T13:54:53.912Z,102064.20
2023-01-19T13:57:31.277Z,102050.05
2023-01-19T14:00:16.483Z,102040.81
2023-01-19T14:02:59.877Z,102035.44
2023-01-19T14:05:40.304Z,102023.40
2023-01-19T14:08:13.408Z,102010.48
2023-01-19T14:10:48.810Z,102004.05
2023-01-19T14:13:26.467Z,102000.77
2023-01-19T14:15:56.331Z,101993.28
2023-01-19T14:18:25.527Z,101983.68
2023-01-19T14:20:58.726Z,101981.44
2023-01-19T14:23:44.277Z,101978.86
2023-01-19T14:26:42.093Z,101978.91
2023-01-19T14:29:28.135Z,101971.59
2023-01-19T14:32:15.172Z,101965.14
2023-01-19T14:34:54.256Z,101956.23
2023-01-19T14:37:28.864Z,101943.98
2023-01-19T14:43:07.634Z,101980.35
2023-01-19T14:45:39.545Z,101989.35
2023-01-19T14:48:15.811Z,101967.09
2023-01-19T14:51:01.387Z,101960.45
2023-01-19T14:53:30.223Z,101958.18
2023-01-19T14:55:59.861Z,101949.44
2023-01-19T14:58:27.724Z,101959.27
2023-01-19T15:00:56.038Z,101949.48
2023-01-19T15:03:34.867Z,101946.67
2023-01-19T15:06:21.212Z,101954.41
2023-01-19T15:08:50.501Z,101954.08
2023-01-19T15:11:32.542Z,101956.20
2023-01-19T15:13:59.898Z,101954.82
2023-01-19T15:16:28.085Z,101956.23
2023-01-19T15:18:55.262Z,101953.08
2023-01-19T15:21:26.992Z,101949.08
2023-01-19T15:23:55.007Z,101945.39
2023-01-19T15:26:23.957Z,101942.60
2023-01-19T15:28:51.101Z,101942.27
2023-01-19T15:31:19.581Z,101944.55
2023-01-19T15:33:46.733Z,101945.41
2023-01-19T15:36:18.511Z,101944.52
2023-01-19T15:38:46.509Z,101950.48
2023-01-19T15:41:30.206Z,101946.29
2023-01-19T15:43:57.354Z,101950.50
2023-01-19T15:46:25.607Z,101943.85
2023-01-19T15:48:53.195Z,101943.15
2023-01-19T15:51:22.063Z,101942.63
2023-01-19T15:53:50.039Z,101944.73
2023-01-19T15:56:25.171Z,101942.45
2023-01-19T15:58:52.976Z,101946.48
2023-01-19T16:01:22.574Z,101950.34
2023-01-19T16:03:50.114Z,101956.99
2023-01-19T16:06:18.289Z,101957.33
2023-01-19T16:08:45.495Z,101960.31
2023-01-19T16:11:14.156Z,101967.66
2023-01-19T16:13:41.311Z,101972.73
2023-01-19T16:16:12.550Z,101973.80
2023-01-19T16:18:39.615Z,101976.94
2023-01-19T16:25:57.713Z,101985.68
2023-01-19T16:28:25.791Z,101977.80
2023-01-19T16:30:53.011Z,101978.67
2023-01-19T16:33:20.815Z,101980.77
2023-01-19T16:35:48.140Z,101980.77
2023-01-19T16:38:15.216Z,101982.70
2023-01-19T16:44:17.095Z,102000.53
2023-01-19T16:46:45.794Z,101998.42
2023-01-19T16:49:14.256Z,102003.48
2023-01-19T16:51:41.501Z,102006.28
2023-01-19T16:54:08.761Z,102008.37
2023-01-19T16:56:35.779Z,102014.84
2023-01-19T16:59:02.883Z,102016.40
2023-01-19T17:01:30.252Z,102016.56
2023-01-19T17:03:57.636Z,102019.70
2023-01-19T17:06:24.830Z,102020.39
2023-01-19T17:08:52.085Z,102028.42
2023-01-19T17:11:21.713Z,102029.46
2023-01-19T17:13:49.958Z,102022.45
2023-01-19T17:16:17.024Z,102025.60
2023-01-19T17:18:44.137Z,102026.47
2023-01-19T17:21:11.191Z,102021.91
2023-01-19T17:23:42.310Z,102027.16
2023-01-19T17:26:09.420Z,102019.64
2023-01-19T17:28:36.594Z,102015.06
2023-01-19T17:31:12.543Z,102013.30
2023-01-19T17:33:39.965Z,102013.12
2023-01-19T17:36:08.839Z,102012.23
2023-01-19T17:38:37.933Z,102011.36
2023-01-19T17:41:15.044Z,102019.41
2023-01-19T17:43:42.248Z,102021.15
2023-01-19T17:46:09.618Z,102018.36
2023-01-19T17:48:38.194Z,102021.48
2023-01-19T17:51:15.231Z,102022.71
2023-01-19T17:53:42.748Z,102028.27
2023-01-19T17:56:14.289Z,102025.83
2023-01-19T17:58:41.591Z,102028.96
2023-01-19T18:01:16.531Z,102028.27
2023-01-19T18:03:43.811Z,102035.77
2023-01-19T18:06:10.927Z,102043.46
2023-01-19T18:08:39.493Z,102049.21
2023-01-19T18:11:06.770Z,102050.61
2023-01-19T18:13:34.769Z,102050.61
2023-01-19T18:16:04.759Z,102052.89
2023-01-19T18:18:34.173Z,102054.29
2023-01-19T18:21:03.058Z,102054.80
2023-01-19T18:23:30.248Z,102057.23
2023-01-19T18:26:00.576Z,102058.64
2023-01-19T18:28:28.092Z,102059.33
2023-01-19T18:30:55.826Z,102063.17
2023-01-19T18:33:24.393Z,102060.71
2023-01-19T18:35:51.839Z,102061.39
2023-01-19T18:38:19.256Z,102058.22
2023-01-19T18:40:47.388Z,102058.55
2023-01-19T18:43:15.457Z,102057.84
2023-01-19T18:45:42.970Z,102062.70
2023-01-19T18:48:10.225Z,102066.03
2023-01-19T18:50:40.600Z,102064.79
2023-01-19T18:53:07.785Z,102070.19
2023-01-19T18:55:36.695Z,102077.35
2023-01-19T18:58:06.080Z,102072.81
2023-01-19T19:00:35.447Z,102070.36
2023-01-19T19:03:02.625Z,102070.19
2023-01-19T19:05:30.415Z,102073.16
2023-01-19T19:07:58.766Z,102078.57
2023-01-19T19:10:26.124Z,102080.65
2023-01-19T19:12:53.395Z,102081.86
2023-01-19T19:15:21.925Z,102083.06
2023-01-19T19:17:49.169Z,102084.45
2023-01-19T19:20:17.924Z,102080.25
2023-01-19T19:22:45.346Z,102079.20
2023-01-19T19:25:12.750Z,102073.59
2023-01-19T19:27:46.453Z,102077.25
2023-01-19T19:30:14.207Z,102083.16
2023-01-19T19:32:41.663Z,102084.88
2023-01-19T19:35:09.295Z,102083.80
2023-01-19T19:37:36.867Z,102078.54
2023-01-19T19:40:05.368Z,102084.47
2023-01-19T19:42:33.703Z,102082.86
2023-01-19T19:45:00.972Z,102086.33
2023-01-19T19:47:30.640Z,102084.73
2023-01-19T19:49:59.533Z,102077.20
2023-01-19T19:52:29.556Z,102078.06
2023-01-19T19:54:56.820Z,102085.19
2023-01-19T19:57:24.423Z,102087.42
2023-01-19T19:59:51.632Z,102088.95
2023-01-19T20:02:18.750Z,102083.48
2023-01-19T20:04:46.102Z,102087.81
2023-01-19T20:07:13.309Z,102089.69
2023-01-19T20:09:40.412Z,102096.13
2023-01-19T20:12:08.217Z,102094.68
2023-01-19T20:14:35.281Z,102094.65
2023-01-19T20:17:02.508Z,102090.79
2023-01-19T20:19:31.779Z,102087.09
2023-01-19T20:22:00.202Z,102084.95
2023-01-19T20:24:27.306Z,102093.61
2023-01-19T20:26:56.389Z,102101.08
2023-01-19T20:29:23.475Z,102103.46
2023-01-19T20:31:55.008Z,102107.48
2023-01-19T20:34:24.431Z,102110.41
2023-01-19T20:36:53.782Z,102113.88
2023-01-19T20:39:21.501Z,102111.42
2023-01-19T20:41:51.066Z,102109.29
2023-01-19T20:44:20.715Z,102105.61
2023-01-19T20:46:48.080Z,102110.98
2023-01-19T20:49:15.245Z,102113.05
2023-01-19T20:51:45.340Z,102114.75
2023-01-19T20:54:13.655Z,102118.41
2023-01-19T20:56:41.816Z,102120.13
2023-01-19T20:59:10.018Z,102123.60
2023-01-19T21:01:37.314Z,102119.75
2023-01-19T21:04:04.654Z,102122.52
2023-01-19T21:06:31.688Z,102121.06
2023-01-19T21:08:58.781Z,102121.92
2023-01-19T21:11:25.887Z,102120.84
2023-01-19T21:13:57.986Z,102118.19
2023-01-19T21:16:26.302Z,102128.45
2023-01-19T21:18:53.582Z,102124.06
2023-01-19T21:21:30.452Z,102132.08
2023-01-19T21:23:59.696Z,102130.67
2023-01-19T21:26:26.884Z,102131.04
2023-01-19T21:28:53.927Z,102127.02
2023-01-19T21:31:27.042Z,102127.00
2023-01-19T21:33:55.017Z,102132.91
2023-01-19T21:36:22.828Z,102126.27
2023-01-19T21:38:51.733Z,102123.77
2023-01-19T21:41:19.145Z,102128.62
2023-01-19T21:43:46.411Z,102121.79
2023-01-19T21:46:16.644Z,102118.81
2023-01-19T21:48:43.825Z,102119.70
2023-01-19T21:51:10.926Z,102118.98
2023-01-19T21:53:38.249Z,102122.30
2023-01-19T21:56:09.565Z,102125.98
2023-01-19T21:58:36.757Z,102128.61
2023-01-19T22:01:06.277Z,102131.40
2023-01-19T22:03:33.550Z,102131.39
2023-01-19T22:06:08.058Z,102128.25
2023-01-19T22:08:35.321Z,102135.73
2023-01-19T22:11:06.754Z,102137.13
2023-01-19T22:13:34.256Z,102134.85
2023-01-19T22:16:08.862Z,102135.33
2023-01-19T22:18:36.868Z,102140.74
2023-01-19T22:21:20.103Z,102140.75
2023-01-19T22:23:50.835Z,102145.98
2023-01-19T22:26:18.107Z,102150.70
2023-01-19T22:28:45.316Z,102148.39
2023-01-19T22:31:16.383Z,102153.46
2023-01-19T22:33:43.558Z,102155.20
2023-01-19T22:36:15.066Z,102155.52
2023-01-19T22:38:42.854Z,102158.84
2023-01-19T22:41:20.128Z,102160.73
2023-01-19T22:43:47.998Z,102162.25
2023-01-19T22:46:19.471Z,102159.63
2023-01-19T22:48:47.418Z,102159.61
2023-01-19T22:51:14.911Z,102162.20
2023-01-19T22:53:42.021Z,102168.64
2023-01-19T22:56:13.807Z,102170.40
2023-01-19T22:58:40.995Z,102178.64
2023-01-19T23:01:08.766Z,102180.73
2023-01-19T23:03:37.566Z,102181.25
2023-01-19T23:06:56.850Z,102183.52
2023-01-19T23:09:23.920Z,102198.72
2023-01-19T23:14:42.492Z,102206.59
2023-01-19T23:17:09.623Z,102208.67
2023-01-19T23:19:36.607Z,102207.95
2023-01-19T23:22:03.805Z,102210.21
2023-01-19T23:24:30.993Z,102208.48
2023-01-19T23:26:58.149Z,102212.48
2023-01-19T23:29:25.152Z,102215.09
2023-01-19T23:31:53.714Z,102219.81
2023-01-19T23:34:20.793Z,102221.02
2023-01-19T23:36:48.239Z,102215.38
2023-01-19T23:39:20.094Z,102216.04
2023-01-19T23:41:47.411Z,102222.98
2023-01-19T23:44:14.648Z,102224.88
2023-01-19T23:46:41.734Z,102227.11
2023-01-19T23:49:08.770Z,102225.52
2023-01-19T23:51:36.051Z,102224.80
2023-01-19T23:54:03.302Z,102221.10
2023-01-19T23:56:32.288Z,102224.05
2023-01-19T23:59:04.437Z,102223.16
